Time;durP1;ratioP1;P1;durP2;ratioP2;P2;SDS_P1;SDS_P2;PMS_P1;PMS_P2;Temp;Humidity;BMP_temperature;BMP_pressure;BME280_temperature;BME280_humidity;BME280_pressure;Samples;Min_cycle;Max_cycle;Signal;HPM_P1;HPM_P2
2021/09/16 00:01:33;;;;;;;1.05;0.50;;;;;;;;;;5058774;28;20051;-74
2021/09/16 00:03:58;;;;;;;2.80;1.10;;;;;;;;;;5064914;28;20067;-74
2021/09/16 00:06:24;;;;;;;0.77;0.60;;;;;;;;;;5078075;28;20093;-73
2021/09/16 00:08:49;;;;;;;2.00;0.50;;;;;;;;;;5067854;28;20036;-74
2021/09/16 00:11:15;;;;;;;1.55;0.60;;;;;;;;;;5070955;28;20035;-74
2021/09/16 00:13:41;;;;;;;1.13;0.60;;;;;;;;;;5073274;28;21388;-74
2021/09/16 00:16:06;;;;;;;4.22;0.85;;;;;;;;;;5066532;28;20015;-74
2021/09/16 00:18:32;;;;;;;3.78;0.52;;;;;;;;;;5074803;28;20799;-74
2021/09/16 00:20:57;;;;;;;1.60;0.85;;;;;;;;;;5063072;28;20029;-74
2021/09/16 00:23:23;;;;;;;2.97;0.70;;;;;;;;;;5070947;28;20092;-75
2021/09/16 00:25:48;;;;;;;1.67;0.80;;;;;;;;;;5071172;28;20079;-74
2021/09/16 00:28:14;;;;;;;4.03;0.52;;;;;;;;;;5073007;28;20078;-75
2021/09/16 00:30:39;;;;;;;1.77;0.70;;;;;;;;;;5056503;28;20048;-74
2021/09/16 00:33:05;;;;;;;2.60;0.70;;;;;;;;;;5079608;28;20020;-74
2021/09/16 00:35:31;;;;;;;1.20;0.63;;;;;;;;;;5068506;28;20025;-74
2021/09/16 00:37:56;;;;;;;1.60;0.60;;;;;;;;;;5060390;28;20039;-74
2021/09/16 00:40:22;;;;;;;2.03;0.60;;;;;;;;;;5072658;28;20024;-74
2021/09/16 00:42:48;;;;;;;1.00;0.70;;;;;;;;;;5057151;28;20031;-74
2021/09/16 00:45:13;;;;;;;2.17;0.60;;;;;;;;;;5073820;28;20488;-75
2021/09/16 00:47:44;;;;;;;2.08;0.60;;;;;;;;;;5070167;28;20064;-75
2021/09/16 00:50:11;;;;;;;3.00;0.75;;;;;;;;;;5070695;28;20060;-74
2021/09/16 00:52:39;;;;;;;2.97;0.60;;;;;;;;;;5070453;28;20064;-73
2021/09/16 00:55:05;;;;;;;2.35;0.70;;;;;;;;;;5069918;28;20361;-74
2021/09/16 00:57:32;;;;;;;1.95;0.70;;;;;;;;;;5071654;28;20028;-74
2021/09/16 01:00:00;;;;;;;1.45;0.55;;;;;;;;;;5067695;28;20076;-74
2021/09/16 01:02:26;;;;;;;1.15;0.40;;;;;;;;;;5076149;28;20032;-73
2021/09/16 01:04:52;;;;;;;4.32;0.63;;;;;;;;;;5054030;28;20040;-74
2021/09/16 01:07:18;;;;;;;1.00;0.60;;;;;;;;;;5057598;28;20017;-74
2021/09/16 01:09:43;;;;;;;1.92;0.75;;;;;;;;;;5060665;28;20035;-74
2021/09/16 01:12:09;;;;;;;0.75;0.50;;;;;;;;;;5066904;28;20059;-74
2021/09/16 01:14:35;;;;;;;2.83;0.60;;;;;;;;;;5083278;28;20468;-73
2021/09/16 01:17:00;;;;;;;1.33;0.43;;;;;;;;;;5074728;28;20048;-74
2021/09/16 01:19:27;;;;;;;2.97;0.60;;;;;;;;;;5069568;28;20024;-74
2021/09/16 01:21:52;;;;;;;0.80;0.40;;;;;;;;;;5068350;28;20102;-73
2021/09/16 01:24:18;;;;;;;3.60;0.80;;;;;;;;;;5071269;28;20074;-74
2021/09/16 01:26:45;;;;;;;4.13;1.10;;;;;;;;;;5071289;28;20059;-75
2021/09/16 01:29:12;;;;;;;2.13;0.70;;;;;;;;;;5082566;28;20027;-74
2021/09/16 01:31:38;;;;;;;2.05;0.63;;;;;;;;;;5069081;28;20031;-74
2021/09/16 01:34:06;;;;;;;1.20;0.60;;;;;;;;;;5061067;28;20028;-74
2021/09/16 01:36:32;;;;;;;2.45;0.57;;;;;;;;;;5070299;28;20024;-74
2021/09/16 01:38:59;;;;;;;2.55;0.57;;;;;;;;;;5074130;28;20427;-75
2021/09/16 01:41:25;;;;;;;1.58;0.77;;;;;;;;;;5066710;28;20032;-74
2021/09/16 01:43:51;;;;;;;0.85;0.50;;;;;;;;;;5072401;28;20024;-74
2021/09/16 01:46:16;;;;;;;0.57;0.43;;;;;;;;;;5087652;28;20025;-75
2021/09/16 01:48:42;;;;;;;4.20;0.82;;;;;;;;;;5074448;28;20471;-74
2021/09/16 01:51:07;;;;;;;1.42;0.90;;;;;;;;;;5074038;28;20376;-74
2021/09/16 01:53:33;;;;;;;3.22;0.70;;;;;;;;;;5068108;28;20033;-73
2021/09/16 01:55:58;;;;;;;1.80;0.85;;;;;;;;;;5068877;28;20416;-73
2021/09/16 01:58:24;;;;;;;1.55;0.60;;;;;;;;;;5075616;28;20027;-74
2021/09/16 02:00:49;;;;;;;1.80;0.73;;;;;;;;;;5086963;28;20037;-74
2021/09/16 02:03:15;;;;;;;2.80;0.68;;;;;;;;;;5071751;28;20399;-74
2021/09/16 02:05:40;;;;;;;2.40;0.80;;;;;;;;;;5076735;28;20361;-74
2021/09/16 02:08:06;;;;;;;2.08;0.73;;;;;;;;;;5067997;28;20017;-74
2021/09/16 02:10:31;;;;;;;2.15;0.80;;;;;;;;;;5068918;28;20029;-74
2021/09/16 02:12:56;;;;;;;1.52;0.70;;;;;;;;;;5064997;28;20032;-74
2021/09/16 02:15:22;;;;;;;1.20;0.60;;;;;;;;;;5075051;28;20110;-75
2021/09/16 02:17:48;;;;;;;3.17;1.10;;;;;;;;;;5082722;28;20025;-74
2021/09/16 02:20:14;;;;;;;2.90;0.90;;;;;;;;;;5062122;28;20025;-74
2021/09/16 02:22:40;;;;;;;2.22;0.90;;;;;;;;;;5066959;28;20111;-75
2021/09/16 02:25:06;;;;;;;2.38;1.10;;;;;;;;;;5061527;28;20032;-74
2021/09/16 02:27:32;;;;;;;3.47;0.85;;;;;;;;;;5059095;28;20448;-74
2021/09/16 02:29:57;;;;;;;3.33;1.05;;;;;;;;;;5066777;28;20017;-74
2021/09/16 02:32:23;;;;;;;3.30;0.90;;;;;;;;;;5059945;28;20545;-74
2021/09/16 02:34:48;;;;;;;2.13;0.80;;;;;;;;;;5071518;28;20058;-75
2021/09/16 02:37:13;;;;;;;1.98;0.90;;;;;;;;;;5058078;28;20041;-74
2021/09/16 02:39:40;;;;;;;3.90;1.33;;;;;;;;;;5073180;28;20544;-74
2021/09/16 02:42:06;;;;;;;2.58;0.90;;;;;;;;;;5066455;28;20530;-74
2021/09/16 02:44:31;;;;;;;4.38;1.08;;;;;;;;;;5070626;28;20029;-74
2021/09/16 02:46:57;;;;;;;2.38;0.93;;;;;;;;;;5061106;28;20456;-74
2021/09/16 02:49:28;;;;;;;2.70;1.13;;;;;;;;;;5077054;28;20058;-74
2021/09/16 02:51:54;;;;;;;2.10;1.05;;;;;;;;;;5070553;28;20020;-75
2021/09/16 02:54:19;;;;;;;5.13;0.88;;;;;;;;;;5081275;28;20031;-74
2021/09/16 02:56:45;;;;;;;3.58;1.20;;;;;;;;;;5072151;28;20025;-75
2021/09/16 02:59:10;;;;;;;2.80;1.05;;;;;;;;;;5063907;28;20024;-74
2021/09/16 03:01:36;;;;;;;2.03;1.30;;;;;;;;;;5074339;28;20071;-74
2021/09/16 03:04:02;;;;;;;3.38;1.15;;;;;;;;;;5075158;28;20027;-74
2021/09/16 03:06:27;;;;;;;3.42;0.98;;;;;;;;;;5080381;28;20029;-74
2021/09/16 03:08:53;;;;;;;3.28;1.02;;;;;;;;;;5075228;28;20389;-73
2021/09/16 03:11:19;;;;;;;4.13;1.00;;;;;;;;;;5062517;28;20429;-73
2021/09/16 03:13:45;;;;;;;3.72;1.30;;;;;;;;;;5075310;28;20066;-73
2021/09/16 03:16:10;;;;;;;2.72;1.15;;;;;;;;;;5063763;28;20472;-74
2021/09/16 03:18:36;;;;;;;2.65;1.05;;;;;;;;;;5072000;28;20025;-74
2021/09/16 03:21:01;;;;;;;2.70;1.05;;;;;;;;;;5064061;28;20029;-73
2021/09/16 03:23:27;;;;;;;3.58;1.50;;;;;;;;;;5064383;28;20087;-73
2021/09/16 03:25:52;;;;;;;2.15;1.10;;;;;;;;;;5037318;28;20031;-75
2021/09/16 03:28:18;;;;;;;4.20;1.55;;;;;;;;;;5067463;28;20082;-73
2021/09/16 03:30:43;;;;;;;2.45;1.08;;;;;;;;;;5070471;28;20081;-75
2021/09/16 03:33:09;;;;;;;1.70;0.93;;;;;;;;;;5068665;28;20136;-74
2021/09/16 03:35:35;;;;;;;5.38;1.20;;;;;;;;;;5057918;28;20043;-73
2021/09/16 03:38:00;;;;;;;6.15;1.38;;;;;;;;;;5068909;28;20032;-75
2021/09/16 03:40:26;;;;;;;7.10;1.30;;;;;;;;;;5078606;28;20032;-75
2021/09/16 03:42:51;;;;;;;4.25;1.10;;;;;;;;;;5077981;28;20024;-75
2021/09/16 03:45:17;;;;;;;5.40;1.13;;;;;;;;;;5064656;28;20112;-74
2021/09/16 03:47:43;;;;;;;2.92;1.10;;;;;;;;;;5054505;28;20017;-74
2021/09/16 03:50:09;;;;;;;3.90;1.30;;;;;;;;;;5058819;28;20040;-74
2021/09/16 03:52:34;;;;;;;6.32;1.45;;;;;;;;;;5061924;28;20163;-74
2021/09/16 03:55:00;;;;;;;5.20;1.13;;;;;;;;;;5058427;28;20108;-75
2021/09/16 03:57:25;;;;;;;4.45;1.42;;;;;;;;;;5068821;28;20024;-74
2021/09/16 03:59:51;;;;;;;3.63;1.40;;;;;;;;;;5070063;28;20044;-75
2021/09/16 04:02:16;;;;;;;5.93;1.35;;;;;;;;;;5060176;28;20436;-74
2021/09/16 04:04:42;;;;;;;3.95;1.40;;;;;;;;;;5069838;28;20111;-74
2021/09/16 04:07:07;;;;;;;2.55;1.10;;;;;;;;;;5059354;28;20047;-75
2021/09/16 04:09:33;;;;;;;3.38;1.45;;;;;;;;;;5079415;28;20074;-74
2021/09/16 04:11:59;;;;;;;4.07;1.52;;;;;;;;;;5054062;28;20098;-74
2021/09/16 04:14:25;;;;;;;6.20;2.28;;;;;;;;;;5061214;28;20017;-75
2021/09/16 04:16:51;;;;;;;2.45;1.17;;;;;;;;;;5070412;28;20074;-75
2021/09/16 04:19:17;;;;;;;3.97;1.52;;;;;;;;;;5054908;28;20103;-74
2021/09/16 04:21:42;;;;;;;5.20;1.40;;;;;;;;;;5066225;28;20119;-74
2021/09/16 04:24:09;;;;;;;2.63;1.08;;;;;;;;;;5063574;28;20025;-74
2021/09/16 04:26:37;;;;;;;3.00;1.40;;;;;;;;;;5060291;28;20448;-75
2021/09/16 04:29:03;;;;;;;2.85;1.40;;;;;;;;;;5053534;28;20087;-74
2021/09/16 04:31:29;;;;;;;5.38;1.30;;;;;;;;;;5082895;28;20391;-75
2021/09/16 04:33:54;;;;;;;3.10;1.23;;;;;;;;;;5076224;28;20033;-75
2021/09/16 04:36:20;;;;;;;4.50;1.63;;;;;;;;;;5060151;28;20403;-76
2021/09/16 04:38:45;;;;;;;3.13;1.35;;;;;;;;;;5067664;28;20088;-74
2021/09/16 04:41:11;;;;;;;3.60;1.38;;;;;;;;;;5087174;28;20111;-76
2021/09/16 04:43:36;;;;;;;6.15;2.20;;;;;;;;;;5070103;28;20069;-76
2021/09/16 04:46:02;;;;;;;2.95;1.17;;;;;;;;;;5074364;28;20350;-75
2021/09/16 04:48:27;;;;;;;4.18;1.48;;;;;;;;;;5051438;28;20180;-75
2021/09/16 04:50:52;;;;;;;3.65;1.58;;;;;;;;;;5055119;28;20050;-76
2021/09/16 04:53:18;;;;;;;5.80;1.20;;;;;;;;;;5072091;28;20028;-75
2021/09/16 04:55:43;;;;;;;3.95;1.52;;;;;;;;;;5062990;28;20067;-75
2021/09/16 04:58:09;;;;;;;6.05;1.58;;;;;;;;;;5074410;28;20024;-75
2021/09/16 05:00:35;;;;;;;4.78;1.45;;;;;;;;;;5087224;28;20119;-76
2021/09/16 05:03:00;;;;;;;2.38;1.05;;;;;;;;;;5064054;28;20032;-76
2021/09/16 05:05:26;;;;;;;6.03;1.40;;;;;;;;;;5070287;28;20032;-74
2021/09/16 05:07:51;;;;;;;4.15;1.10;;;;;;;;;;5069824;28;20071;-76
2021/09/16 05:10:16;;;;;;;3.47;1.55;;;;;;;;;;5070239;28;20028;-74
2021/09/16 05:12:42;;;;;;;4.32;1.40;;;;;;;;;;5069684;28;20028;-74
2021/09/16 05:15:08;;;;;;;3.85;1.67;;;;;;;;;;5056186;28;20098;-75
2021/09/16 05:17:33;;;;;;;5.22;1.45;;;;;;;;;;5074651;28;20417;-76
2021/09/16 05:19:59;;;;;;;3.47;1.30;;;;;;;;;;5072264;28;20476;-75
2021/09/16 05:22:24;;;;;;;6.97;1.83;;;;;;;;;;5074447;28;20029;-75
2021/09/16 05:24:51;;;;;;;4.53;1.50;;;;;;;;;;5065469;28;20033;-75
2021/09/16 05:27:19;;;;;;;6.63;1.33;;;;;;;;;;5073850;28;20063;-75
2021/09/16 05:29:47;;;;;;;3.85;1.55;;;;;;;;;;5061247;28;20104;-75
2021/09/16 05:32:13;;;;;;;4.40;1.33;;;;;;;;;;5068832;28;20383;-74
2021/09/16 05:34:38;;;;;;;5.07;1.40;;;;;;;;;;5071423;28;20028;-75
2021/09/16 05:37:04;;;;;;;7.32;1.88;;;;;;;;;;5061762;28;20021;-76
2021/09/16 05:39:30;;;;;;;3.67;1.23;;;;;;;;;;5072166;28;20433;-75
2021/09/16 05:41:55;;;;;;;3.47;1.13;;;;;;;;;;5073856;28;20052;-76
2021/09/16 05:44:21;;;;;;;3.90;1.35;;;;;;;;;;5073001;28;20052;-75
2021/09/16 05:46:47;;;;;;;4.03;1.55;;;;;;;;;;5072916;28;20107;-75
2021/09/16 05:49:12;;;;;;;4.43;1.45;;;;;;;;;;5070768;28;20017;-76
2021/09/16 05:51:38;;;;;;;2.97;1.20;;;;;;;;;;5072141;28;20480;-74
2021/09/16 05:54:03;;;;;;;6.57;1.55;;;;;;;;;;5070853;28;20388;-75
2021/09/16 05:56:29;;;;;;;4.93;1.40;;;;;;;;;;5071797;28;20380;-75
2021/09/16 05:58:56;;;;;;;3.17;1.17;;;;;;;;;;5073321;28;20036;-77
2021/09/16 06:01:22;;;;;;;4.03;1.25;;;;;;;;;;5065212;28;20041;-75
2021/09/16 06:03:47;;;;;;;3.83;1.15;;;;;;;;;;5072304;28;20407;-76
2021/09/16 06:06:13;;;;;;;3.38;1.38;;;;;;;;;;5073170;28;20029;-75
2021/09/16 06:08:38;;;;;;;2.85;1.25;;;;;;;;;;5078847;28;20099;-75
2021/09/16 06:11:04;;;;;;;4.88;1.33;;;;;;;;;;5069146;28;20048;-75
2021/09/16 06:13:29;;;;;;;3.92;1.30;;;;;;;;;;5064027;28;20021;-74
2021/09/16 06:15:55;;;;;;;3.00;1.20;;;;;;;;;;5071793;28;20032;-75
2021/09/16 06:18:21;;;;;;;3.45;1.40;;;;;;;;;;5067869;28;20059;-75
2021/09/16 06:20:46;;;;;;;7.40;1.73;;;;;;;;;;5071616;28;20024;-76
2021/09/16 06:23:12;;;;;;;4.57;1.20;;;;;;;;;;5072869;28;20491;-76
2021/09/16 06:25:37;;;;;;;3.95;1.40;;;;;;;;;;5073571;28;20024;-74
2021/09/16 06:28:03;;;;;;;3.50;1.60;;;;;;;;;;5057781;28;20489;-75
2021/09/16 06:30:28;;;;;;;4.18;1.48;;;;;;;;;;5052729;28;20045;-74
2021/09/16 06:32:54;;;;;;;2.63;1.30;;;;;;;;;;5057546;28;20054;-75
2021/09/16 06:35:20;;;;;;;3.38;1.10;;;;;;;;;;5072326;28;20040;-75
2021/09/16 06:37:46;;;;;;;4.18;1.65;;;;;;;;;;5068741;28;20039;-77
2021/09/16 06:40:12;;;;;;;4.07;1.30;;;;;;;;;;5072969;28;20025;-75
2021/09/16 06:42:38;;;;;;;3.55;1.20;;;;;;;;;;5071919;28;20033;-76
2021/09/16 06:45:05;;;;;;;7.35;1.25;;;;;;;;;;5072562;28;20388;-75
2021/09/16 06:47:31;;;;;;;3.70;1.35;;;;;;;;;;5068349;28;20025;-74
2021/09/16 06:49:56;;;;;;;5.07;1.33;;;;;;;;;;5068034;28;20028;-76
2021/09/16 06:52:22;;;;;;;3.92;1.40;;;;;;;;;;5084964;28;20157;-74
2021/09/16 06:54:49;;;;;;;5.55;1.23;;;;;;;;;;5076922;28;20032;-74
2021/09/16 06:57:15;;;;;;;4.63;1.50;;;;;;;;;;5080586;28;20031;-76
2021/09/16 06:59:41;;;;;;;2.35;1.13;;;;;;;;;;5067929;28;20357;-78
2021/09/16 07:02:07;;;;;;;4.50;1.27;;;;;;;;;;5077096;28;20025;-74
2021/09/16 07:04:32;;;;;;;4.95;1.85;;;;;;;;;;5079732;28;20425;-76
2021/09/16 07:07:03;;;;;;;3.17;1.20;;;;;;;;;;5080375;28;20468;-75
2021/09/16 07:09:29;;;;;;;5.45;1.25;;;;;;;;;;5077167;28;20119;-75
2021/09/16 07:11:55;;;;;;;3.35;1.40;;;;;;;;;;5089036;28;20058;-76
2021/09/16 07:14:22;;;;;;;4.90;1.20;;;;;;;;;;5085278;28;20421;-75
2021/09/16 07:16:47;;;;;;;3.63;1.10;;;;;;;;;;5072204;28;20104;-77
2021/09/16 07:19:13;;;;;;;2.60;1.38;;;;;;;;;;5072867;28;20111;-73
2021/09/16 07:21:38;;;;;;;4.70;1.00;;;;;;;;;;5072839;28;20028;-77
2021/09/16 07:24:05;;;;;;;4.68;1.20;;;;;;;;;;5073032;28;20456;-74
2021/09/16 07:26:30;;;;;;;4.65;1.30;;;;;;;;;;5072911;28;20036;-77
2021/09/16 07:28:56;;;;;;;3.22;1.00;;;;;;;;;;5077929;28;20031;-74
2021/09/16 07:31:22;;;;;;;8.35;1.83;;;;;;;;;;5077191;28;20029;-74
2021/09/16 07:33:48;;;;;;;3.92;1.30;;;;;;;;;;5071705;28;20111;-76
2021/09/16 07:36:13;;;;;;;6.90;1.30;;;;;;;;;;5077229;28;20016;-76
2021/09/16 07:38:40;;;;;;;3.45;1.10;;;;;;;;;;5087799;28;20016;-78
2021/09/16 07:41:05;;;;;;;2.92;1.10;;;;;;;;;;5081162;28;20071;-76
2021/09/16 07:43:31;;;;;;;5.55;1.35;;;;;;;;;;5085366;28;20491;-76
2021/09/16 07:45:57;;;;;;;4.80;1.30;;;;;;;;;;5083496;28;20058;-75
2021/09/16 07:48:22;;;;;;;4.18;1.30;;;;;;;;;;5084414;28;20021;-76
2021/09/16 07:50:49;;;;;;;4.15;1.33;;;;;;;;;;5072238;28;20028;-76
2021/09/16 07:53:14;;;;;;;3.50;1.20;;;;;;;;;;5071424;28;20024;-75
2021/09/16 07:55:40;;;;;;;5.43;1.20;;;;;;;;;;5072021;28;20342;-77
2021/09/16 07:58:06;;;;;;;2.22;0.98;;;;;;;;;;5080843;28;20400;-76
2021/09/16 08:00:32;;;;;;;4.72;1.00;;;;;;;;;;5079276;28;20193;-74
2021/09/16 08:02:58;;;;;;;3.47;1.17;;;;;;;;;;5078847;28;20106;-77
2021/09/16 08:05:23;;;;;;;4.13;1.30;;;;;;;;;;5086690;28;20060;-75
2021/09/16 08:07:49;;;;;;;3.45;1.17;;;;;;;;;;5078593;28;20028;-75
2021/09/16 08:10:15;;;;;;;4.78;0.90;;;;;;;;;;5077249;28;20035;-77
2021/09/16 08:12:40;;;;;;;4.60;1.00;;;;;;;;;;5082359;28;20103;-76
2021/09/16 08:15:08;;;;;;;3.80;1.23;;;;;;;;;;5083281;28;20099;-75
2021/09/16 08:17:33;;;;;;;3.75;1.20;;;;;;;;;;5071136;28;20027;-74
2021/09/16 08:20:00;;;;;;;1.90;1.10;;;;;;;;;;5073960;28;20103;-75
2021/09/16 08:22:26;;;;;;;4.70;1.27;;;;;;;;;;5074757;28;20459;-72
2021/09/16 08:24:51;;;;;;;3.80;1.50;;;;;;;;;;5072076;28;20028;-76
2021/09/16 08:27:17;;;;;;;5.13;1.27;;;;;;;;;;5081109;28;20040;-75
2021/09/16 08:29:44;;;;;;;4.20;1.38;;;;;;;;;;5084008;28;20656;-74
2021/09/16 08:32:10;;;;;;;2.47;1.42;;;;;;;;;;5055914;28;20392;-74
2021/09/16 08:34:37;;;;;;;2.28;1.20;;;;;;;;;;5072076;28;20078;-74
2021/09/16 08:37:03;;;;;;;6.18;1.50;;;;;;;;;;5071227;28;20099;-78
2021/09/16 08:39:29;;;;;;;3.72;1.83;;;;;;;;;;5083549;28;20071;-74
2021/09/16 08:41:54;;;;;;;3.70;1.48;;;;;;;;;;5072356;28;20017;-75
2021/09/16 08:44:22;;;;;;;5.68;1.25;;;;;;;;;;5077969;28;20369;-76
2021/09/16 08:46:48;;;;;;;2.20;1.15;;;;;;;;;;5080292;28;20116;-76
2021/09/16 08:49:14;;;;;;;4.05;1.38;;;;;;;;;;5107052;28;20476;-76
2021/09/16 08:51:40;;;;;;;5.72;1.58;;;;;;;;;;5081173;28;20031;-75
2021/09/16 08:54:08;;;;;;;3.72;1.25;;;;;;;;;;5089183;28;20104;-78
2021/09/16 08:56:34;;;;;;;3.63;1.40;;;;;;;;;;5093562;28;20028;-74
2021/09/16 08:59:06;;;;;;;3.03;1.38;;;;;;;;;;5090095;28;20030;-76
2021/09/16 09:01:34;;;;;;;9.77;1.60;;;;;;;;;;5081501;28;20395;-76
2021/09/16 09:04:00;;;;;;;4.15;1.38;;;;;;;;;;5090671;28;20027;-75
2021/09/16 09:06:42;;;;;;;2.92;1.63;;;;;;;;;;5082426;28;20419;-78
2021/09/16 09:09:19;;;;;;;3.13;1.40;;;;;;;;;;5074246;28;20142;-73
2021/09/16 09:12:09;;;;;;;5.68;1.45;;;;;;;;;;5077548;28;20157;-74
2021/09/16 09:14:47;;;;;;;4.70;1.55;;;;;;;;;;5094272;28;20035;-74
2021/09/16 09:17:24;;;;;;;3.63;1.23;;;;;;;;;;5058594;28;20063;-76
2021/09/16 09:19:51;;;;;;;4.22;1.33;;;;;;;;;;5061488;28;20028;-76
2021/09/16 09:22:25;;;;;;;3.38;1.33;;;;;;;;;;5062854;28;20032;-76
2021/09/16 09:25:08;;;;;;;4.50;1.40;;;;;;;;;;5078057;28;20067;-75
2021/09/16 09:27:37;;;;;;;3.60;1.13;;;;;;;;;;5073745;28;20054;-78
2021/09/16 09:30:22;;;;;;;3.30;1.20;;;;;;;;;;5070032;28;20025;-77
2021/09/16 09:32:52;;;;;;;3.78;1.20;;;;;;;;;;5074782;28;20032;-74
2021/09/16 09:35:38;;;;;;;2.92;1.10;;;;;;;;;;5079312;28;20036;-77
2021/09/16 09:38:22;;;;;;;2.85;1.40;;;;;;;;;;5072286;28;20111;-75
2021/09/16 09:40:51;;;;;;;3.85;1.50;;;;;;;;;;5074309;28;20107;-74
2021/09/16 09:43:35;;;;;;;2.72;1.17;;;;;;;;;;5076132;28;20494;-75
2021/09/16 09:46:08;;;;;;;;;;;;;;;;;;5072140;28;20043;-77
2021/09/16 09:48:45;;;;;;;3.00;1.30;;;;;;;;;;5101198;28;20493;-77
2021/09/16 09:51:14;;;;;;;4.60;1.33;;;;;;;;;;5081865;28;20035;-75
2021/09/16 09:53:43;;;;;;;2.13;1.20;;;;;;;;;;5069911;28;20036;-75
2021/09/16 09:56:19;;;;;;;2.90;1.40;;;;;;;;;;5092344;28;20484;-77
2021/09/16 09:58:47;;;;;;;3.45;1.02;;;;;;;;;;5085890;28;20028;-76
2021/09/16 10:01:26;;;;;;;3.35;1.55;;;;;;;;;;5075574;28;20123;-76
2021/09/16 10:03:52;;;;;;;5.00;1.40;;;;;;;;;;5077445;28;20028;-77
2021/09/16 10:06:18;;;;;;;5.78;1.20;;;;;;;;;;5082512;28;20402;-75
2021/09/16 10:08:44;;;;;;;4.85;1.25;;;;;;;;;;5065015;28;20031;-76
2021/09/16 10:11:10;;;;;;;5.22;1.30;;;;;;;;;;5079007;28;20365;-77
2021/09/16 10:13:36;;;;;;;6.20;1.73;;;;;;;;;;5081202;28;20080;-75
2021/09/16 10:16:04;;;;;;;3.95;1.40;;;;;;;;;;5076037;28;20111;-76
2021/09/16 10:18:34;;;;;;;5.28;1.73;;;;;;;;;;5075436;28;20039;-77
2021/09/16 10:21:03;;;;;;;3.63;1.30;;;;;;;;;;5078235;28;20020;-76
2021/09/16 10:23:29;;;;;;;4.80;1.42;;;;;;;;;;5082358;28;20036;-75
2021/09/16 10:26:01;;;;;;;3.00;1.10;;;;;;;;;;5076210;28;20020;-76
2021/09/16 10:28:37;;;;;;;2.63;1.20;;;;;;;;;;5099397;28;20027;-75
2021/09/16 10:31:19;;;;;;;4.78;1.30;;;;;;;;;;5069813;28;20403;-76
2021/09/16 10:33:45;;;;;;;3.70;1.30;;;;;;;;;;5055210;28;20078;-75
2021/09/16 10:36:11;;;;;;;2.78;1.20;;;;;;;;;;5076165;28;20032;-75
2021/09/16 10:38:36;;;;;;;4.65;1.50;;;;;;;;;;5071685;28;20446;-75
2021/09/16 10:41:29;;;;;;;4.10;1.20;;;;;;;;;;5074382;28;20032;-78
2021/09/16 10:43:57;;;;;;;3.10;1.30;;;;;;;;;;5080378;28;20020;-78
2021/09/16 10:46:33;;;;;;;4.35;1.13;;;;;;;;;;5079087;28;20039;-76
2021/09/16 10:49:21;;;;;;;5.25;1.30;;;;;;;;;;5077576;28;20029;-76
2021/09/16 10:51:51;;;;;;;4.15;1.20;;;;;;;;;;5075373;28;20480;-75
2021/09/16 10:54:24;;;;;;;6.13;1.63;;;;;;;;;;5075614;28;20119;-74
2021/09/16 10:57:07;;;;;;;2.65;1.35;;;;;;;;;;5075516;28;20361;-76
2021/09/16 10:59:50;;;;;;;5.68;1.33;;;;;;;;;;5080949;28;20468;-75
2021/09/16 11:02:16;;;;;;;4.57;1.58;;;;;;;;;;5072991;28;20174;-75
2021/09/16 11:04:54;;;;;;;4.38;1.20;;;;;;;;;;5080950;28;20037;-75
2021/09/16 11:07:38;;;;;;;5.90;1.40;;;;;;;;;;5081032;28;20044;-75
2021/09/16 11:10:16;;;;;;;3.25;1.45;;;;;;;;;;5081246;28;20058;-74
2021/09/16 11:12:53;;;;;;;5.78;1.40;;;;;;;;;;5087476;28;20031;-76
2021/09/16 11:15:30;;;;;;;2.78;1.30;;;;;;;;;;5082605;28;20028;-75
2021/09/16 11:18:06;;;;;;;2.75;1.17;;;;;;;;;;5090126;28;20047;-76
2021/09/16 11:20:33;;;;;;;3.80;1.35;;;;;;;;;;5092155;28;20036;-74
2021/09/16 11:22:59;;;;;;;4.35;1.30;;;;;;;;;;5067921;28;20024;-74
2021/09/16 11:25:25;;;;;;;3.13;1.30;;;;;;;;;;5077054;28;20024;-74
2021/09/16 11:27:54;;;;;;;3.83;1.40;;;;;;;;;;5060636;28;20039;-76
2021/09/16 11:30:21;;;;;;;2.80;1.50;;;;;;;;;;5075370;28;20712;-74
2021/09/16 11:32:49;;;;;;;4.47;1.50;;;;;;;;;;5073098;28;20052;-75
2021/09/16 11:35:16;;;;;;;3.58;1.52;;;;;;;;;;5079897;28;20107;-74
2021/09/16 11:37:44;;;;;;;2.58;1.30;;;;;;;;;;5077060;28;20020;-77
2021/09/16 11:40:15;;;;;;;6.13;1.50;;;;;;;;;;5056833;28;20028;-75
2021/09/16 11:42:45;;;;;;;3.33;1.38;;;;;;;;;;5071937;28;20384;-75
2021/09/16 11:45:11;;;;;;;4.25;1.40;;;;;;;;;;5073959;28;20099;-76
2021/09/16 11:47:41;;;;;;;3.28;1.63;;;;;;;;;;5074564;28;20700;-75
2021/09/16 11:50:21;;;;;;;3.38;1.55;;;;;;;;;;5074340;28;20074;-74
2021/09/16 11:52:52;;;;;;;6.10;1.40;;;;;;;;;;5076921;28;20067;-74
2021/09/16 11:55:17;;;;;;;3.85;1.60;;;;;;;;;;5072302;28;20464;-74
2021/09/16 11:58:02;;;;;;;5.65;1.67;;;;;;;;;;5071487;28;20158;-75
2021/09/16 12:00:38;;;;;;;5.25;1.30;;;;;;;;;;5072535;28;20050;-77
2021/09/16 12:03:08;;;;;;;3.60;1.33;;;;;;;;;;5069786;28;20082;-77
2021/09/16 12:05:38;;;;;;;4.43;1.50;;;;;;;;;;5070793;28;20066;-78
2021/09/16 12:08:05;;;;;;;4.70;1.35;;;;;;;;;;5085021;28;20027;-76
2021/09/16 12:10:44;;;;;;;4.50;1.40;;;;;;;;;;5059561;28;20048;-76
2021/09/16 12:13:16;;;;;;;4.18;1.50;;;;;;;;;;5077172;28;20472;-76
2021/09/16 12:15:43;;;;;;;6.57;1.30;;;;;;;;;;5089845;28;20375;-74
2021/09/16 12:18:09;;;;;;;4.13;1.70;;;;;;;;;;5076543;28;20512;-76
2021/09/16 12:20:37;;;;;;;3.72;1.50;;;;;;;;;;5059499;28;20055;-74
2021/09/16 12:23:04;;;;;;;3.42;1.35;;;;;;;;;;5053675;28;20020;-73
2021/09/16 12:25:47;;;;;;;4.32;1.30;;;;;;;;;;5073244;28;20384;-75
2021/09/16 12:28:12;;;;;;;4.15;1.38;;;;;;;;;;5077270;28;20063;-74
2021/09/16 12:30:38;;;;;;;2.80;1.30;;;;;;;;;;5087941;28;20066;-75
2021/09/16 12:33:26;;;;;;;3.20;1.20;;;;;;;;;;5085234;28;20072;-74
2021/09/16 12:36:17;;;;;;;3.65;1.45;;;;;;;;;;5054170;28;20090;-75
2021/09/16 12:38:46;;;;;;;3.13;1.40;;;;;;;;;;5070552;28;20035;-75
2021/09/16 12:41:24;;;;;;;6.05;1.55;;;;;;;;;;5072683;28;20024;-76
2021/09/16 12:44:07;;;;;;;3.28;1.60;;;;;;;;;;5059659;28;20073;-76
2021/09/16 12:46:41;;;;;;;4.53;1.40;;;;;;;;;;5067256;28;20040;-76
2021/09/16 12:49:08;;;;;;;3.80;1.65;;;;;;;;;;5087676;28;20024;-77
2021/09/16 12:51:34;;;;;;;5.88;1.60;;;;;;;;;;5081773;28;20021;-76
2021/09/16 12:54:02;;;;;;;5.72;1.77;;;;;;;;;;5069840;28;20032;-75
2021/09/16 12:56:35;;;;;;;4.75;1.42;;;;;;;;;;5083343;28;20534;-75
2021/09/16 12:59:16;;;;;;;4.22;1.65;;;;;;;;;;5055920;28;20032;-75
2021/09/16 13:01:42;;;;;;;7.90;1.55;;;;;;;;;;5070281;28;20048;-76
2021/09/16 13:04:07;;;;;;;3.78;1.20;;;;;;;;;;5074781;28;20024;-75
2021/09/16 13:06:34;;;;;;;4.20;1.30;;;;;;;;;;5071653;28;20028;-75
2021/09/16 13:08:59;;;;;;;4.05;1.58;;;;;;;;;;5071040;28;20043;-77
2021/09/16 13:11:28;;;;;;;4.88;1.42;;;;;;;;;;5071133;28;20515;-75
2021/09/16 13:14:06;;;;;;;1.60;0.98;;;;;;;;;;5070796;28;20099;-75
2021/09/16 13:16:32;;;;;;;5.65;1.40;;;;;;;;;;5071023;28;20361;-76
2021/09/16 13:18:58;;;;;;;2.65;1.35;;;;;;;;;;5081702;28;20031;-75
2021/09/16 13:21:25;;;;;;;2.85;1.40;;;;;;;;;;5090829;28;20028;-74
2021/09/16 13:23:50;;;;;;;4.00;1.40;;;;;;;;;;5054547;28;20025;-76
2021/09/16 13:26:16;;;;;;;3.85;1.50;;;;;;;;;;5070239;28;20547;-74
2021/09/16 13:28:42;;;;;;;3.97;1.60;;;;;;;;;;5080186;28;20043;-72
2021/09/16 13:31:07;;;;;;;5.72;1.55;;;;;;;;;;5081000;28;20016;-73
2021/09/16 13:33:33;;;;;;;6.63;1.85;;;;;;;;;;5069986;28;20052;-73
2021/09/16 13:35:59;;;;;;;4.82;1.50;;;;;;;;;;5069796;28;20029;-73
2021/09/16 13:38:24;;;;;;;4.68;1.58;;;;;;;;;;5080158;28;20495;-74
2021/09/16 13:40:53;;;;;;;5.47;1.60;;;;;;;;;;5074013;28;20479;-75
2021/09/16 13:43:18;;;;;;;3.17;1.50;;;;;;;;;;5085935;28;20130;-74
2021/09/16 13:45:44;;;;;;;5.20;1.70;;;;;;;;;;5083833;28;20388;-74
2021/09/16 13:48:10;;;;;;;6.05;1.88;;;;;;;;;;5071305;28;20024;-73
2021/09/16 13:50:36;;;;;;;6.68;1.73;;;;;;;;;;5073441;28;20027;-73
2021/09/16 13:53:02;;;;;;;4.93;1.92;;;;;;;;;;5084168;28;20019;-74
2021/09/16 13:55:27;;;;;;;2.60;1.50;;;;;;;;;;5074471;28;20024;-73
2021/09/16 13:57:53;;;;;;;7.20;2.00;;;;;;;;;;5073477;28;20085;-73
2021/09/16 14:00:18;;;;;;;4.43;1.73;;;;;;;;;;5074219;28;20044;-73
2021/09/16 14:02:45;;;;;;;4.80;1.70;;;;;;;;;;5072594;28;20365;-73
2021/09/16 14:05:11;;;;;;;6.22;1.80;;;;;;;;;;5073285;28;20421;-73
2021/09/16 14:07:37;;;;;;;6.28;1.70;;;;;;;;;;5080532;28;20051;-73
2021/09/16 14:10:04;;;;;;;5.28;1.55;;;;;;;;;;5087529;28;20020;-73
2021/09/16 14:12:30;;;;;;;3.70;1.67;;;;;;;;;;5046459;28;20415;-73
2021/09/16 14:14:55;;;;;;;9.73;2.33;;;;;;;;;;5072762;28;20025;-74
2021/09/16 14:17:21;;;;;;;3.55;1.92;;;;;;;;;;5072638;28;20038;-72
2021/09/16 14:19:46;;;;;;;6.28;1.80;;;;;;;;;;5080724;28;20464;-72
2021/09/16 14:22:12;;;;;;;3.95;1.77;;;;;;;;;;5088510;28;20069;-74
2021/09/16 14:24:37;;;;;;;5.70;2.10;;;;;;;;;;5073630;28;20115;-75
2021/09/16 14:27:03;;;;;;;5.07;1.85;;;;;;;;;;5075592;28;20036;-74
2021/09/16 14:29:29;;;;;;;6.15;2.15;;;;;;;;;;5084938;28;20021;-73
2021/09/16 14:31:54;;;;;;;6.40;1.92;;;;;;;;;;5081667;28;20453;-73
2021/09/16 14:34:20;;;;;;;5.72;1.83;;;;;;;;;;5073548;28;20024;-74
2021/09/16 14:36:47;;;;;;;3.38;1.88;;;;;;;;;;5073387;28;20027;-74
2021/09/16 14:39:13;;;;;;;12.73;2.13;;;;;;;;;;5076733;28;20495;-74
2021/09/16 14:41:39;;;;;;;3.90;1.60;;;;;;;;;;5073452;28;20103;-75
2021/09/16 14:44:05;;;;;;;4.47;2.03;;;;;;;;;;5073290;28;20395;-75
2021/09/16 14:46:31;;;;;;;6.13;2.10;;;;;;;;;;5077636;28;20592;-75